Time;durP1;ratioP1;P1;durP2;ratioP2;P2;SDS_P1;SDS_P2;PMS_P1;PMS_P2;Temp;Humidity;BMP_temperature;BMP_pressure;BME280_temperature;BME280_humidity;BME280_pressure;Samples;Min_cycle;Max_cycle;Signal;HPM_P1;HPM_P2
2023/01/12 00:02:19;;;;;;;6.25;1.38;;;8.20;99.90;;;;;;5019982;28;20399;-77
2023/01/12 00:04:45;;;;;;;6.80;1.40;;;8.20;99.90;;;;;;5042358;28;20112;-78
2023/01/12 00:07:13;;;;;;;4.10;1.13;;;8.20;99.90;;;;;;5015656;28;20044;-76
2023/01/12 00:09:39;;;;;;;5.75;0.98;;;8.20;99.90;;;;;;5043232;28;20047;-78
2023/01/12 00:12:09;;;;;;;8.02;1.52;;;8.20;99.90;;;;;;5035993;28;20040;-78
2023/01/12 00:14:36;;;;;;;9.82;1.63;;;8.20;99.90;;;;;;5026158;28;20036;-78
2023/01/12 00:17:03;;;;;;;7.55;1.42;;;8.20;99.90;;;;;;5026365;28;20044;-75
2023/01/12 00:19:31;;;;;;;6.53;1.35;;;8.20;99.90;;;;;;5043399;28;20044;-75
2023/01/12 00:22:10;;;;;;;8.70;1.90;;;8.20;99.90;;;;;;5036393;28;20052;-78
2023/01/12 00:24:39;;;;;;;8.77;1.77;;;8.20;99.90;;;;;;5027184;28;20796;-78
2023/01/12 00:27:08;;;;;;;10.95;1.42;;;8.20;99.90;;;;;;5051710;28;20032;-77
2023/01/12 00:29:35;;;;;;;7.28;1.85;;;8.20;99.90;;;;;;5046140;28;20500;-76
2023/01/12 00:32:03;;;;;;;11.45;2.33;;;8.30;99.90;;;;;;5003423;28;20041;-77
2023/01/12 00:34:29;;;;;;;12.68;2.13;;;8.20;99.90;;;;;;5031839;28;20029;-78
2023/01/12 00:36:58;;;;;;;8.52;3.17;;;8.30;99.90;;;;;;5012360;28;20034;-77
2023/01/12 00:39:24;;;;;;;8.23;2.67;;;8.30;99.90;;;;;;5029855;28;20460;-77
2023/01/12 00:47:20;;;;;;;12.77;3.60;;;8.30;99.90;;;;;;5042953;28;20411;-77
2023/01/12 00:49:46;;;;;;;11.45;3.00;;;8.30;99.90;;;;;;5047674;28;20041;-78
2023/01/12 00:52:16;;;;;;;10.75;3.55;;;8.30;99.90;;;;;;5023199;28;20407;-76
2023/01/12 00:54:43;;;;;;;14.27;3.97;;;8.30;99.90;;;;;;5046718;28;20051;-76
2023/01/12 00:57:12;;;;;;;24.02;4.72;;;8.40;99.90;;;;;;5046958;28;20475;-77
2023/01/12 00:59:39;;;;;;;14.23;4.68;;;8.40;99.90;;;;;;5048001;28;20051;-78
2023/01/12 01:02:05;;;;;;;18.05;4.28;;;8.40;99.90;;;;;;5040719;28;20649;-77
2023/01/12 01:04:33;;;;;;;20.05;4.30;;;8.40;99.90;;;;;;5045327;28;20037;-80
2023/01/12 01:07:00;;;;;;;19.42;4.50;;;8.40;99.90;;;;;;5045839;28;20040;-79
2023/01/12 01:09:27;;;;;;;18.95;4.18;;;8.40;99.90;;;;;;5034644;28;20036;-79
2023/01/12 01:11:54;;;;;;;17.25;4.55;;;8.40;99.90;;;;;;5037474;28;20029;-78
2023/01/12 01:14:20;;;;;;;18.48;3.90;;;8.50;99.90;;;;;;5046305;28;20039;-78
2023/01/12 01:16:46;;;;;;;21.40;5.20;;;8.50;99.90;;;;;;5038679;28;20284;-79
2023/01/12 01:19:13;;;;;;;20.63;4.70;;;8.50;99.90;;;;;;5047790;28;20029;-77
2023/01/12 01:21:39;;;;;;;23.67;7.05;;;8.50;99.90;;;;;;5019809;28;20495;-78
2023/01/12 01:24:13;;;;;;;17.67;5.72;;;8.50;99.90;;;;;;5014919;28;20029;-79
2023/01/12 01:26:40;;;;;;;29.85;6.95;;;8.50;99.90;;;;;;5028643;28;20041;-78
2023/01/12 01:29:07;;;;;;;20.25;7.20;;;8.50;99.90;;;;;;5033047;28;20035;-79
2023/01/12 01:31:33;;;;;;;25.75;8.65;;;8.50;99.90;;;;;;5036424;28;20126;-79
2023/01/12 01:33:59;;;;;;;20.75;7.43;;;8.50;99.90;;;;;;5015635;28;20041;-78
2023/01/12 01:36:26;;;;;;;22.38;6.68;;;8.50;99.90;;;;;;5052356;28;20029;-78
2023/01/12 01:38:52;;;;;;;21.38;7.20;;;8.60;99.90;;;;;;5044845;28;20043;-78
2023/01/12 01:41:27;;;;;;;24.35;6.75;;;8.60;99.90;;;;;;5041952;28;20052;-77
2023/01/12 01:43:55;;;;;;;21.70;7.07;;;8.60;99.90;;;;;;5029627;28;20052;-78
2023/01/12 01:46:36;;;;;;;18.30;6.88;;;8.60;99.90;;;;;;5044399;28;20044;-78
2023/01/12 01:49:17;;;;;;;24.65;6.18;;;8.60;99.90;;;;;;5012315;28;20055;-78
2023/01/12 01:51:44;;;;;;;21.08;5.97;;;8.60;99.90;;;;;;5036158;28;20041;-80
2023/01/12 01:54:12;;;;;;;24.48;7.18;;;8.60;99.90;;;;;;5044463;28;20522;-80
2023/01/12 01:56:39;;;;;;;28.90;7.80;;;8.70;99.90;;;;;;5044516;28;20380;-78
2023/01/12 01:59:10;;;;;;;21.77;5.78;;;8.70;99.90;;;;;;5043894;28;20380;-79
2023/01/12 02:01:37;;;;;;;24.75;5.57;;;8.70;99.90;;;;;;5005663;28;20045;-79
2023/01/12 02:04:04;;;;;;;19.10;5.78;;;8.70;99.90;;;;;;5048123;28;20830;-79
2023/01/12 02:06:31;;;;;;;23.95;6.15;;;8.70;99.90;;;;;;5027383;28;20025;-79
2023/01/12 02:09:12;;;;;;;17.50;5.28;;;8.70;99.90;;;;;;5044074;28;20036;-79
2023/01/12 02:17:08;;;;;;;23.42;5.47;;;8.70;99.90;;;;;;5047156;28;20833;-78
2023/01/12 02:19:37;;;;;;;15.18;3.85;;;8.70;99.90;;;;;;5044148;28;20033;-78
2023/01/12 02:22:37;;;;;;;14.98;4.22;;;8.70;99.90;;;;;;5020927;28;20052;-78
2023/01/12 02:25:28;;;;;;;19.67;4.50;;;8.70;99.90;;;;;;5042955;28;20040;-79
2023/01/12 02:28:10;;;;;;;18.15;5.10;;;8.70;99.90;;;;;;5025997;28;20048;-78
2023/01/12 02:30:56;;;;;;;13.57;3.97;;;8.70;99.90;;;;;;5032396;28;20080;-79
2023/01/12 02:33:25;;;;;;;14.18;4.28;;;8.70;99.90;;;;;;5040126;28;20037;-79
2023/01/12 02:36:05;;;;;;;17.48;4.28;;;8.70;99.90;;;;;;5026457;28;20377;-79
2023/01/12 02:38:45;;;;;;;15.82;3.65;;;8.70;99.90;;;;;;5027418;28;20048;-78
2023/01/12 02:44:38;;;;;;;21.48;4.10;;;8.70;99.90;;;;;;5042889;28;20965;-79
2023/01/12 02:47:10;;;;;;;13.98;2.63;;;8.60;99.90;;;;;;5042057;28;20055;-79
2023/01/12 02:49:44;;;;;;;12.70;3.05;;;8.60;99.90;;;;;;5044923;28;20048;-78
2023/01/12 02:52:15;;;;;;;17.40;2.92;;;8.70;99.90;;;;;;5002747;28;20044;-79
2023/01/12 02:54:45;;;;;;;16.92;3.42;;;8.60;99.90;;;;;;5044943;28;20048;-78
2023/01/12 02:57:13;;;;;;;11.70;3.00;;;8.60;99.90;;;;;;5029868;28;20048;-80
2023/01/12 02:59:43;;;;;;;14.85;3.63;;;8.60;99.90;;;;;;5043603;28;20045;-79
2023/01/12 03:02:16;;;;;;;15.43;3.00;;;8.60;99.90;;;;;;5021052;28;20052;-79
2023/01/12 03:04:43;;;;;;;15.77;3.15;;;8.70;99.90;;;;;;5026345;28;20041;-79
2023/01/12 03:07:49;;;;;;;14.32;2.55;;;8.70;99.90;;;;;;5043651;28;20044;-79
2023/01/12 03:10:28;;;;;;;18.75;2.28;;;8.70;99.90;;;;;;5011013;28;20507;-79
2023/01/12 03:12:56;;;;;;;11.40;2.72;;;8.70;99.90;;;;;;5039566;28;20082;-79
2023/01/12 03:15:25;;;;;;;9.00;1.88;;;8.70;99.90;;;;;;5047514;28;21883;-79
2023/01/12 03:17:59;;;;;;;15.07;2.78;;;8.70;99.90;;;;;;5016113;28;20037;-79
2023/01/12 03:20:32;;;;;;;12.95;2.10;;;8.70;99.90;;;;;;5047753;28;20037;-80
2023/01/12 03:23:11;;;;;;;18.27;2.97;;;8.60;99.90;;;;;;5007493;28;20522;-79
2023/01/12 03:25:41;;;;;;;21.52;4.18;;;8.70;99.90;;;;;;5048466;28;20484;-79
2023/01/12 03:28:09;;;;;;;28.30;4.22;;;8.70;99.90;;;;;;5030761;28;20404;-79
2023/01/12 03:30:51;;;;;;;12.82;2.85;;;8.70;99.90;;;;;;5048444;28;20040;-79
2023/01/12 03:33:18;;;;;;;25.25;4.32;;;8.70;99.90;;;;;;5041341;28;20029;-81
2023/01/12 03:36:12;;;;;;;21.33;4.43;;;8.70;99.90;;;;;;5046455;28;20491;-79
2023/01/12 03:38:56;;;;;;;22.63;4.47;;;8.70;99.90;;;;;;5025804;28;20488;-79
2023/01/12 03:41:44;;;;;;;17.38;3.42;;;8.70;99.90;;;;;;5026794;28;20044;-78
2023/01/12 03:44:23;;;;;;;17.40;3.58;;;8.70;99.90;;;;;;5030003;28;20041;-80
2023/01/12 03:47:02;;;;;;;24.33;4.10;;;8.70;99.90;;;;;;5028909;28;20037;-79
2023/01/12 03:49:35;;;;;;;17.52;3.67;;;8.70;99.90;;;;;;5046530;28;20051;-79
2023/01/12 03:52:04;;;;;;;15.32;2.95;;;8.70;99.90;;;;;;5044119;28;20151;-79
2023/01/12 03:54:31;;;;;;;18.55;3.30;;;8.70;99.90;;;;;;5031373;28;20040;-79
2023/01/12 03:56:58;;;;;;;21.77;3.47;;;8.70;99.90;;;;;;5030265;28;20400;-78
2023/01/12 03:59:25;;;;;;;16.00;2.80;;;8.70;99.90;;;;;;5047375;28;20045;-76
2023/01/12 04:01:51;;;;;;;17.50;2.50;;;8.70;99.90;;;;;;5038321;28;20064;-79
2023/01/12 04:04:19;;;;;;;19.27;3.35;;;8.70;99.90;;;;;;5046878;28;20052;-80
2023/01/12 04:06:45;;;;;;;20.08;3.08;;;8.70;99.90;;;;;;5048536;28;20522;-79
2023/01/12 04:09:11;;;;;;;20.58;3.47;;;8.60;99.90;;;;;;5047983;28;20427;-77
2023/01/12 04:14:22;;;;;;;11.93;2.20;;;8.70;99.90;;;;;;5049071;28;20037;-78
2023/01/12 04:16:48;;;;;;;10.45;2.92;;;8.70;99.90;;;;;;5046781;28;20108;-78
2023/01/12 04:19:15;;;;;;;19.73;2.65;;;8.70;99.90;;;;;;5049417;28;21495;-78
2023/01/12 04:24:26;;;;;;;11.85;2.53;;;8.70;99.90;;;;;;5027428;28;20028;-79
2023/01/12 04:26:52;;;;;;;9.77;1.52;;;8.70;99.90;;;;;;5029400;28;20049;-77
2023/01/12 04:29:18;;;;;;;15.70;2.38;;;8.60;99.90;;;;;;5047213;28;20037;-78
2023/01/12 04:31:44;;;;;;;10.95;2.03;;;8.60;99.90;;;;;;5019875;28;20072;-78
2023/01/12 04:34:11;;;;;;;13.75;1.70;;;8.60;99.90;;;;;;5049947;28;20032;-79
2023/01/12 04:36:37;;;;;;;12.30;1.75;;;8.60;99.90;;;;;;5045168;28;20408;-80
2023/01/12 04:39:03;;;;;;;13.93;1.83;;;8.70;99.90;;;;;;5029277;28;20055;-78
2023/01/12 04:41:30;;;;;;;10.00;1.88;;;8.60;99.90;;;;;;5039012;28;20037;-78
2023/01/12 04:43:56;;;;;;;11.35;1.60;;;8.60;99.90;;;;;;5029280;28;20518;-79
2023/01/12 04:46:22;;;;;;;11.40;1.40;;;8.60;99.90;;;;;;5020008;28;20049;-79
2023/01/12 04:48:48;;;;;;;15.75;1.73;;;8.60;99.90;;;;;;5015740;28;20730;-80
2023/01/12 04:51:15;;;;;;;17.17;2.55;;;8.60;99.90;;;;;;5042725;28;20041;-78
2023/01/12 04:53:41;;;;;;;17.00;2.15;;;8.60;99.90;;;;;;5047357;28;20794;-80
2023/01/12 04:56:08;;;;;;;12.75;1.75;;;8.60;99.90;;;;;;5031103;28;20052;-79
2023/01/12 04:58:34;;;;;;;13.13;1.95;;;8.60;99.90;;;;;;5029334;28;20044;-79
2023/01/12 05:01:15;;;;;;;17.65;1.63;;;8.60;99.90;;;;;;5026382;28;20040;-77
2023/01/12 05:03:42;;;;;;;13.30;2.10;;;8.60;99.90;;;;;;5028992;28;20033;-80
2023/01/12 05:06:10;;;;;;;11.75;2.22;;;8.60;99.90;;;;;;5045177;28;20047;-77
2023/01/12 05:11:27;;;;;;;15.50;2.30;;;8.60;99.90;;;;;;5023178;28;20421;-78
2023/01/12 05:13:55;;;;;;;13.43;1.98;;;8.60;99.90;;;;;;5045051;28;20041;-79
2023/01/12 05:16:22;;;;;;;13.50;2.85;;;8.60;99.90;;;;;;5045358;28;20395;-80
2023/01/12 05:18:48;;;;;;;16.02;2.33;;;8.60;99.90;;;;;;5031256;28;20504;-78
2023/01/12 05:21:16;;;;;;;15.13;2.10;;;8.60;99.90;;;;;;5028326;28;20415;-79
2023/01/12 05:23:46;;;;;;;7.45;1.15;;;8.70;99.90;;;;;;5043023;28;20063;-79
2023/01/12 05:26:12;;;;;;;13.63;1.42;;;8.60;99.90;;;;;;5046702;28;20039;-80
2023/01/12 05:28:38;;;;;;;14.07;1.38;;;8.70;99.90;;;;;;5027336;28;20496;-79
2023/01/12 05:31:11;;;;;;;10.55;1.38;;;8.70;99.90;;;;;;5028414;28;20045;-79
2023/01/12 05:33:39;;;;;;;7.00;1.10;;;8.70;99.90;;;;;;5041742;28;20029;-82
2023/01/12 05:36:08;;;;;;;8.90;1.10;;;8.70;99.90;;;;;;5044598;28;20028;-81
2023/01/12 05:38:34;;;;;;;12.10;1.00;;;8.70;99.90;;;;;;5028797;28;20051;-79
2023/01/12 05:41:02;;;;;;;10.55;1.30;;;8.70;99.90;;;;;;5041338;28;20053;-78
2023/01/12 05:46:15;;;;;;;5.30;1.33;;;8.70;99.90;;;;;;5032116;28;20040;-80
2023/01/12 05:48:41;;;;;;;10.57;1.15;;;8.70;99.90;;;;;;5044512;28;20036;-79
2023/01/12 05:51:09;;;;;;;11.30;1.10;;;8.70;99.90;;;;;;5038795;28;20041;-77
2023/01/12 05:53:36;;;;;;;9.38;1.63;;;8.80;99.90;;;;;;5047777;28;20630;-81
2023/01/12 05:56:09;;;;;;;8.55;1.02;;;8.80;99.90;;;;;;5045939;28;20052;-79
2023/01/12 05:58:36;;;;;;;6.65;0.95;;;8.80;99.90;;;;;;5027352;28;20052;-82
2023/01/12 06:01:07;;;;;;;12.38;1.80;;;8.80;99.90;;;;;;5047450;28;20041;-79
2023/01/12 06:03:34;;;;;;;11.55;1.35;;;8.80;99.90;;;;;;5007810;28;20025;-81
2023/01/12 06:06:00;;;;;;;10.05;1.15;;;8.80;99.90;;;;;;5028925;28;20055;-79
2023/01/12 06:08:26;;;;;;;12.55;1.10;;;8.80;99.90;;;;;;5027741;28;20488;-82
2023/01/12 06:10:53;;;;;;;8.82;1.00;;;8.80;99.90;;;;;;5041779;28;20408;-78
2023/01/12 06:16:07;;;;;;;9.90;1.40;;;8.80;99.90;;;;;;5029139;28;20072;-80
2023/01/12 06:18:35;;;;;;;7.32;1.00;;;8.80;99.90;;;;;;5027521;28;20050;-78
2023/01/12 06:21:03;;;;;;;7.38;0.95;;;8.80;99.90;;;;;;5040485;28;20036;-78
2023/01/12 06:23:29;;;;;;;6.82;0.73;;;8.80;99.90;;;;;;5039570;28;20049;-79
2023/01/12 06:25:58;;;;;;;14.10;1.75;;;8.80;99.90;;;;;;5027929;28;20727;-79
2023/01/12 06:28:25;;;;;;;8.63;1.02;;;8.90;99.90;;;;;;5027557;28;20040;-79
2023/01/12 06:30:58;;;;;;;7.55;0.90;;;8.90;99.90;;;;;;5008730;28;20042;-77
2023/01/12 06:33:26;;;;;;;7.78;1.17;;;8.90;99.90;;;;;;5007041;28;20041;-80
2023/01/12 06:35:53;;;;;;;8.23;0.73;;;8.90;99.90;;;;;;5049195;28;20029;-79
2023/01/12 06:38:22;;;;;;;11.55;1.42;;;8.90;99.90;;;;;;5011576;28;20072;-80
2023/01/12 06:40:48;;;;;;;8.85;1.55;;;8.90;99.90;;;;;;5042512;28;20616;-79
2023/01/12 06:43:15;;;;;;;5.10;1.33;;;8.90;99.90;;;;;;5023944;28;20044;-81
2023/01/12 06:45:41;;;;;;;10.70;1.38;;;8.90;99.90;;;;;;5043782;28;20045;-79
2023/01/12 06:48:07;;;;;;;5.63;0.85;;;8.90;99.90;;;;;;5043224;28;20037;-79
2023/01/12 06:50:35;;;;;;;8.68;1.42;;;8.90;99.90;;;;;;5043963;28;20036;-79
2023/01/12 06:53:03;;;;;;;6.38;0.98;;;8.90;99.90;;;;;;5036645;28;20044;-80
2023/01/12 06:55:29;;;;;;;6.32;1.23;;;9.00;99.90;;;;;;5043377;28;20036;-79
2023/01/12 06:57:56;;;;;;;6.68;1.63;;;9.00;99.90;;;;;;5043958;28;20029;-79
2023/01/12 07:00:22;;;;;;;6.43;1.15;;;9.00;99.90;;;;;;5049791;28;20056;-79
2023/01/12 07:02:49;;;;;;;8.55;1.02;;;9.00;99.90;;;;;;5020819;28;20033;-78
2023/01/12 07:05:16;;;;;;;7.25;1.23;;;9.00;99.90;;;;;;5042467;28;20044;-80
2023/01/12 07:07:42;;;;;;;6.60;0.82;;;9.00;99.90;;;;;;5046769;28;20021;-79
2023/01/12 07:10:10;;;;;;;6.63;2.20;;;9.00;99.90;;;;;;5043449;28;20052;-80
2023/01/12 07:12:36;;;;;;;6.88;2.13;;;9.10;99.90;;;;;;5035646;28;20036;-84
2023/01/12 07:15:03;;;;;;;4.95;1.63;;;9.10;99.90;;;;;;5013280;28;20276;-81
2023/01/12 07:17:30;;;;;;;6.63;1.63;;;9.10;99.90;;;;;;5025657;28;20155;-81
2023/01/12 07:19:56;;;;;;;5.22;2.58;;;9.10;99.90;;;;;;5042172;28;20048;-82
2023/01/12 07:22:23;;;;;;;4.93;1.75;;;9.10;99.90;;;;;;5035891;28;20184;-82
2023/01/12 07:24:49;;;;;;;4.30;1.98;;;9.20;99.90;;;;;;5035658;28;20040;-79
2023/01/12 07:27:15;;;;;;;4.78;2.78;;;9.20;99.90;;;;;;5023673;28;20040;-77
2023/01/12 07:29:41;;;;;;;8.27;2.88;;;9.20;99.90;;;;;;5020092;28;20037;-79
2023/01/12 07:32:08;;;;;;;7.15;3.17;;;9.20;99.90;;;;;;5030669;28;20515;-80
2023/01/12 07:34:34;;;;;;;6.60;2.92;;;9.20;99.90;;;;;;5024182;28;20028;-78
2023/01/12 07:37:00;;;;;;;6.97;3.08;;;9.20;99.90;;;;;;5038626;28;20037;-80
2023/01/12 07:39:26;;;;;;;11.27;6.40;;;9.20;99.90;;;;;;5019684;28;20512;-79
2023/01/12 07:44:39;;;;;;;11.05;4.88;;;9.20;99.90;;;;;;5041444;28;20495;-78
2023/01/12 07:47:05;;;;;;;6.80;3.03;;;9.30;99.90;;;;;;5024904;28;20503;-78
2023/01/12 07:49:31;;;;;;;6.88;3.13;;;9.30;99.90;;;;;;5042191;28;20029;-78
2023/01/12 07:51:58;;;;;;;6.53;3.17;;;9.30;99.90;;;;;;5035946;28;20037;-80
2023/01/12 07:54:24;;;;;;;6.18;2.72;;;9.30;99.90;;;;;;5024963;28;20033;-80
2023/01/12 07:56:50;;;;;;;7.38;3.35;;;9.30;99.90;;;;;;5010054;28;20044;-80
2023/01/12 07:59:16;;;;;;;6.30;2.70;;;9.30;99.90;;;;;;5062185;28;20037;-79
2023/01/12 08:01:43;;;;;;;6.18;3.28;;;9.40;99.90;;;;;;5038509;28;20063;-79
2023/01/12 08:04:09;;;;;;;6.28;3.95;;;9.40;99.90;;;;;;5029959;28;20381;-80
2023/01/12 08:06:35;;;;;;;3.65;2.65;;;9.40;99.90;;;;;;5029680;28;20041;-81
2023/01/12 08:09:02;;;;;;;4.70;3.25;;;9.40;99.90;;;;;;5029800;28;20063;-80
2023/01/12 08:11:28;;;;;;;6.72;3.10;;;9.40;99.90;;;;;;5045608;28;20484;-79
2023/01/12 08:13:56;;;;;;;6.55;3.55;;;9.50;99.90;;;;;;5044982;28;20048;-80
2023/01/12 08:16:28;;;;;;;7.22;3.42;;;9.50;99.90;;;;;;5046249;28;20040;-81
2023/01/12 08:19:06;;;;;;;6.88;3.10;;;9.50;99.90;;;;;;5045982;28;20041;-79
2023/01/12 08:21:44;;;;;;;10.90;3.28;;;9.50;99.90;;;;;;5034435;28;20673;-78
2023/01/12 08:24:16;;;;;;;6.65;3.00;;;9.50;99.90;;;;;;5011513;28;20037;-78
2023/01/12 08:26:44;;;;;;;8.88;4.25;;;9.50;99.90;;;;;;5046253;28;20037;-79
2023/01/12 08:29:18;;;;;;;6.50;3.35;;;9.50;99.90;;;;;;5047782;28;20033;-80
2023/01/12 08:31:44;;;;;;;6.20;3.33;;;9.50;99.90;;;;;;5032008;28;20033;-80
2023/01/12 08:34:10;;;;;;;6.22;4.00;;;9.50;99.90;;;;;;5043859;28;20033;-80
2023/01/12 08:36:41;;;;;;;5.82;3.60;;;9.50;99.90;;;;;;5044836;28;20049;-79
2023/01/12 08:39:07;;;;;;;5.28;3.85;;;9.50;99.90;;;;;;5062203;28;20029;-81
2023/01/12 08:41:36;;;;;;;5.90;4.00;;;9.60;99.90;;;;;;5020664;28;20033;-80
2023/01/12 08:44:08;;;;;;;5.47;3.78;;;9.60;99.90;;;;;;5046381;28;20095;-79
2023/01/12 08:46:37;;;;;;;9.52;5.25;;;9.60;99.90;;;;;;5045855;28;20035;-81
2023/01/12 08:49:10;;;;;;;6.97;4.00;;;9.60;99.90;;;;;;5046232;28;20036;-80
2023/01/12 08:51:38;;;;;;;6.80;5.13;;;9.60;99.90;;;;;;5010614;28;20037;-79
2023/01/12 08:54:05;;;;;;;8.68;5.72;;;9.70;99.90;;;;;;5044739;28;20040;-80
2023/01/12 08:56:32;;;;;;;7.68;4.38;;;9.70;99.90;;;;;;5044702;28;20029;-80
2023/01/12 08:58:59;;;;;;;5.95;5.00;;;9.70;99.90;;;;;;5036737;28;20037;-80
2023/01/12 09:01:26;;;;;;;7.80;5.15;;;9.70;99.90;;;;;;5022955;28;20033;-79
2023/01/12 09:03:52;;;;;;;8.38;4.25;;;9.70;99.90;;;;;;5044680;28;20033;-81
2023/01/12 09:06:40;;;;;;;5.70;4.25;;;9.80;99.90;;;;;;5027482;28;20025;-80
2023/01/12 09:09:10;;;;;;;8.43;4.80;;;9.80;99.90;;;;;;5030200;28;20040;-80
2023/01/12 09:11:40;;;;;;;7.75;4.65;;;9.80;99.90;;;;;;5021053;28;20040;-79
2023/01/12 09:14:06;;;;;;;7.18;4.55;;;9.80;99.90;;;;;;5045735;28;20032;-79
2023/01/12 09:16:33;;;;;;;7.90;6.10;;;9.80;99.90;;;;;;5044246;28;20064;-79
2023/01/12 09:18:59;;;;;;;10.00;6.45;;;9.80;99.90;;;;;;5060254;28;20033;-80
2023/01/12 09:21:28;;;;;;;6.18;5.50;;;9.80;99.90;;;;;;5042214;28;20047;-80
2023/01/12 09:23:55;;;;;;;5.28;4.78;;;9.90;99.90;;;;;;5027247;28;20041;-79
2023/01/12 09:26:30;;;;;;;7.13;5.65;;;9.90;99.90;;;;;;5044874;28;20044;-80
2023/01/12 09:29:01;;;;;;;6.65;6.00;;;9.90;99.90;;;;;;5011767;28;20037;-80
2023/01/12 09:31:29;;;;;;;8.35;5.97;;;9.90;99.90;;;;;;5040238;28;20040;-79
2023/01/12 09:33:55;;;;;;;11.40;6.15;;;9.90;99.90;;;;;;5046670;28;20064;-81
2023/01/12 09:36:31;;;;;;;8.32;6.38;;;9.90;99.90;;;;;;5030966;28;20045;-80
2023/01/12 09:38:58;;;;;;;7.55;6.22;;;9.90;99.90;;;;;;5044565;28;20049;-79
2023/01/12 09:47:35;;;;;;;9.40;7.30;;;10.00;99.90;;;;;;5042915;28;20048;-79
2023/01/12 09:50:31;;;;;;;11.30;7.38;;;10.00;99.90;;;;;;5015470;28;20033;-79
2023/01/12 09:53:19;;;;;;;6.50;5.70;;;10.10;99.90;;;;;;5039945;28;20029;-79
2023/01/12 09:56:07;;;;;;;8.07;6.85;;;10.10;99.90;;;;;;5030046;28;20045;-78
2023/01/12 09:59:21;;;;;;;7.90;6.32;;;10.10;99.90;;;;;;5048426;28;20033;-80
2023/01/12 10:01:50;;;;;;;8.57;7.32;;;10.10;99.90;;;;;;5007445;28;20056;-81
2023/01/12 10:04:16;;;;;;;10.05;6.75;;;10.10;99.90;;;;;;5043343;28;20052;-81
2023/01/12 10:06:43;;;;;;;8.82;7.57;;;10.20;99.90;;;;;;5027442;28;20040;-81
2023/01/12 10:09:15;;;;;;;9.00;6.68;;;10.20;99.90;;;;;;5043886;28;20495;-81
2023/01/12 10:11:56;;;;;;;6.40;5.65;;;10.20;99.90;;;;;;5019128;28;20952;-80
2023/01/12 10:14:49;;;;;;;8.05;6.07;;;10.20;99.90;;;;;;5045833;28;20037;-80
2023/01/12 10:17:30;;;;;;;7.30;6.18;;;10.30;99.90;;;;;;5042950;28;20036;-78
2023/01/12 10:20:01;;;;;;;7.85;6.53;;;10.30;99.90;;;;;;5043541;28;20052;-79
2023/01/12 10:22:38;;;;;;;6.53;5.93;;;10.30;99.90;;;;;;5020765;28;20495;-79
2023/01/12 10:25:23;;;;;;;7.53;5.60;;;10.30;99.90;;;;;;5032202;28;20488;-79
2023/01/12 10:27:53;;;;;;;7.70;5.55;;;10.40;99.90;;;;;;5013206;28;20411;-79
2023/01/12 10:30:31;;;;;;;7.68;5.13;;;10.40;99.90;;;;;;5043397;28;20041;-79
2023/01/12 10:33:12;;;;;;;6.22;4.28;;;10.40;99.90;;;;;;5016478;28;20514;-80
2023/01/12 10:35:57;;;;;;;4.68;4.18;;;10.40;99.90;;;;;;5041561;28;20047;-80
2023/01/12 10:38:23;;;;;;;4.05;3.13;;;10.40;99.90;;;;;;5025710;28;20029;-79
2023/01/12 10:41:09;;;;;;;3.20;2.85;;;10.40;99.90;;;;;;5023750;28;20615;-79
2023/01/12 10:43:37;;;;;;;4.03;2.75;;;10.40;99.90;;;;;;5020996;28;20056;-79
2023/01/12 10:46:10;;;;;;;4.55;2.65;;;10.40;99.90;;;;;;5045065;28;20041;-79
2023/01/12 10:48:41;;;;;;;3.67;2.83;;;10.40;99.90;;;;;;5044800;28;20048;-80
2023/01/12 10:51:22;;;;;;;4.18;2.72;;;10.50;99.90;;;;;;5022746;28;20049;-79
2023/01/12 10:53:52;;;;;;;3.33;2.42;;;10.40;99.90;;;;;;5031725;28;20025;-80
2023/01/12 10:56:38;;;;;;;2.85;2.13;;;10.50;99.90;;;;;;5030573;28;20040;-80
2023/01/12 10:59:16;;;;;;;3.25;2.38;;;10.50;99.90;;;;;;5027123;28;20036;-80
2023/01/12 11:02:11;;;;;;;3.15;2.50;;;10.50;99.90;;;;;;5001552;28;20251;-80
2023/01/12 11:04:46;;;;;;;3.33;2.30;;;10.50;99.90;;;;;;5034417;28;20041;-79
2023/01/12 11:07:30;;;;;;;3.15;2.40;;;10.50;99.90;;;;;;5044704;28;20040;-81
2023/01/12 11:10:18;;;;;;;2.95;2.10;;;10.50;99.90;;;;;;5044135;28;20049;-80
2023/01/12 11:12:53;;;;;;;3.05;2.33;;;10.60;99.90;;;;;;5017888;28;20033;-80
2023/01/12 11:15:20;;;;;;;2.95;2.65;;;10.60;99.90;;;;;;5014258;28;20049;-80
2023/01/12 11:18:02;;;;;;;3.10;2.42;;;10.60;99.90;;;;;;5010441;28;20045;-80
2023/01/12 11:21:04;;;;;;;2.33;2.03;;;10.60;99.90;;;;;;5043466;28;20040;-80
2023/01/12 11:23:41;;;;;;;2.30;2.00;;;10.60;99.90;;;;;;4982888;28;20055;-79
2023/01/12 11:26:20;;;;;;;3.42;2.72;;;10.60;99.90;;;;;;5045656;28;20032;-80
2023/01/12 11:28:51;;;;;;;3.45;2.95;;;10.70;99.90;;;;;;5025405;28;20136;-80
2023/01/12 11:31:27;;;;;;;3.95;3.33;;;10.70;99.90;;;;;;5041457;28;20049;-79
2023/01/12 11:33:58;;;;;;;4.00;3.28;;;10.70;99.90;;;;;;5013969;28;20151;-80
2023/01/12 11:36:35;;;;;;;5.90;3.78;;;10.70;99.90;;;;;;5030489;28;20270;-79
2023/01/12 11:39:24;;;;;;;3.95;3.55;;;10.70;99.90;;;;;;5018706;28;20036;-80
2023/01/12 11:44:43;;;;;;;4.25;2.67;;;10.70;99.90;;;;;;5047509;28;20048;-80
2023/01/12 11:47:18;;;;;;;3.97;3.45;;;10.70;99.90;;;;;;5061222;28;20052;-80
2023/01/12 11:50:05;;;;;;;5.10;4.60;;;10.70;99.90;;;;;;5045189;28;20492;-81
2023/01/12 11:52:32;;;;;;;4.80;4.20;;;10.70;99.90;;;;;;5039793;28;20060;-79
2023/01/12 11:54:59;;;;;;;3.60;3.30;;;10.70;99.90;;;;;;5045514;28;20526;-81
2023/01/12 11:57:28;;;;;;;3.67;3.35;;;10.70;99.90;;;;;;5010908;28;20575;-80
2023/01/12 12:00:13;;;;;;;4.82;4.38;;;10.80;99.90;;;;;;5041936;28;20056;-79
2023/01/12 12:02:39;;;;;;;4.72;3.83;;;10.80;99.90;;;;;;5041785;28;20041;-81
2023/01/12 12:05:27;;;;;;;4.50;3.97;;;10.70;99.90;;;;;;5033033;28;20041;-79
2023/01/12 12:08:08;;;;;;;5.68;4.03;;;10.80;99.90;;;;;;5030831;28;20048;-80
2023/01/12 12:10:34;;;;;;;6.35;5.75;;;10.80;99.90;;;;;;5047440;28;20029;-81
2023/01/12 12:13:14;;;;;;;6.28;5.68;;;10.80;99.90;;;;;;5041671;28;20033;-80
2023/01/12 12:15:59;;;;;;;6.10;5.57;;;10.80;99.90;;;;;;5043629;28;20389;-80
2023/01/12 12:18:46;;;;;;;7.28;5.82;;;10.80;99.90;;;;;;5041074;28;20036;-80
2023/01/12 12:21:31;;;;;;;5.15;4.65;;;10.80;99.90;;;;;;5035352;28;20041;-79
2023/01/12 12:24:23;;;;;;;4.25;3.90;;;10.80;99.90;;;;;;5026608;28;20385;-79
2023/01/12 12:27:26;;;;;;;5.03;4.63;;;10.80;99.90;;;;;;5037172;28;20037;-79
2023/01/12 12:30:10;;;;;;;4.53;3.88;;;10.80;99.90;;;;;;5036652;28;20037;-82
2023/01/12 12:32:37;;;;;;;5.18;4.68;;;10.80;99.90;;;;;;5019887;28;20037;-85
2023/01/12 12:35:21;;;;;;;5.68;5.18;;;10.80;99.90;;;;;;5043214;28;20033;-82
2023/01/12 12:38:06;;;;;;;4.85;4.35;;;10.80;99.90;;;;;;5024050;28;20033;-82
2023/01/12 12:47:05;;;;;;;3.60;3.30;;;10.80;99.90;;;;;;5024450;28;20056;-82
2023/01/12 12:49:34;;;;;;;3.40;3.13;;;10.80;99.90;;;;;;5022017;28;20033;-90
2023/01/12 12:52:03;;;;;;;3.38;3.08;;;10.80;99.90;;;;;;5037719;28;20037;-82
2023/01/12 12:54:30;;;;;;;3.05;2.85;;;10.80;99.90;;;;;;5041886;28;20040;-83
2023/01/12 12:56:57;;;;;;;4.03;3.15;;;10.80;99.90;;;;;;5024820;28;20052;-81
2023/01/12 12:59:32;;;;;;;3.42;2.67;;;10.80;99.90;;;;;;5010740;28;20037;-83
2023/01/12 13:02:01;;;;;;;3.25;2.85;;;10.80;99.90;;;;;;5038982;28;20044;-84
2023/01/12 13:04:43;;;;;;;3.38;2.53;;;10.80;99.90;;;;;;5044565;28;20037;-83
2023/01/12 13:07:20;;;;;;;3.85;3.17;;;10.80;99.90;;;;;;5023484;28;20024;-85
2023/01/12 13:09:48;;;;;;;2.30;2.03;;;10.80;99.90;;;;;;5009987;28;20041;-83
2023/01/12 13:12:19;;;;;;;3.92;2.90;;;10.80;99.90;;;;;;5026507;28;20381;-83
2023/01/12 13:15:11;;;;;;;3.80;2.60;;;10.80;99.90;;;;;;5013256;28;20048;-84
2023/01/12 13:17:43;;;;;;;2.33;1.98;;;10.80;99.90;;;;;;5033130;28;20044;-82
2023/01/12 13:20:09;;;;;;;2.60;2.35;;;10.80;99.90;;;;;;5025828;28;20041;-81
2023/01/12 13:22:48;;;;;;;2.47;2.08;;;10.80;99.90;;;;;;5021179;28;20049;-82
2023/01/12 13:25:23;;;;;;;3.65;2.90;;;10.80;99.90;;;;;;5037584;28;20040;-83
2023/01/12 13:28:01;;;;;;;2.85;2.47;;;10.70;99.90;;;;;;5040139;28;20032;-83
2023/01/12 13:30:28;;;;;;;3.28;2.97;;;10.80;99.90;;;;;;5046199;28;20052;-81
2023/01/12 13:33:16;;;;;;;4.53;4.13;;;10.70;99.90;;;;;;5012506;28;20506;-83
2023/01/12 13:35:45;;;;;;;5.55;3.55;;;10.70;99.90;;;;;;5032346;28;20520;-82
2023/01/12 13:38:32;;;;;;;4.75;4.32;;;10.70;99.90;;;;;;5023565;28;20534;-82
2023/01/12 13:44:11;;;;;;;5.40;4.82;;;10.70;99.90;;;;;;5037467;28;20045;-79
2023/01/12 13:46:47;;;;;;;3.60;3.17;;;10.70;99.90;;;;;;5039844;28;20042;-82
2023/01/12 13:49:27;;;;;;;3.83;3.03;;;10.70;99.90;;;;;;5014234;28;20815;-80
2023/01/12 13:52:29;;;;;;;4.25;3.78;;;10.70;99.90;;;;;;5033855;28;20037;-81
2023/01/12 13:54:56;;;;;;;2.97;2.70;;;10.60;99.90;;;;;;5037453;28;20059;-82
2023/01/12 13:57:28;;;;;;;3.70;3.40;;;10.60;99.90;;;;;;5039745;28;20048;-82
2023/01/12 14:00:08;;;;;;;2.95;2.65;;;10.60;99.90;;;;;;5042019;28;20036;-81
2023/01/12 14:02:40;;;;;;;3.20;2.90;;;10.60;99.90;;;;;;5020550;28;20041;-81
2023/01/12 14:05:43;;;;;;;5.65;2.90;;;10.60;99.90;;;;;;5038897;28;20037;-80